sensor_id;sensor_type;location;lat;lon;timestamp;P1;durP1;ratioP1;P2;durP2;ratioP2
79171;SDS011;68597;53.238;-1.418;2023-03-31T00:00:27;17.48;;;3.60;;
79171;SDS011;68597;53.238;-1.418;2023-03-31T00:02:52;15.23;;;3.70;;
79171;SDS011;68597;53.238;-1.418;2023-03-31T00:05:18;20.50;;;4.25;;
79171;SDS011;68597;53.238;-1.418;2023-03-31T00:07:44;17.65;;;3.28;;
79171;SDS011;68597;53.238;-1.418;2023-03-31T00:10:11;24.52;;;3.10;;
79171;SDS011;68597;53.238;-1.418;2023-03-31T00:12:36;17.45;;;3.38;;
79171;SDS011;68597;53.238;-1.418;2023-03-31T00:15:02;17.00;;;4.20;;
79171;SDS011;68597;53.238;-1.418;2023-03-31T00:17:28;17.40;;;4.90;;
79171;SDS011;68597;53.238;-1.418;2023-03-31T00:19:53;20.77;;;3.20;;
79171;SDS011;68597;53.238;-1.418;2023-03-31T00:22:19;14.63;;;2.72;;
79171;SDS011;68597;53.238;-1.418;2023-03-31T00:24:44;20.02;;;3.63;;
79171;SDS011;68597;53.238;-1.418;2023-03-31T00:27:11;13.63;;;2.67;;
79171;SDS011;68597;53.238;-1.418;2023-03-31T00:29:37;13.98;;;2.70;;
79171;SDS011;68597;53.238;-1.418;2023-03-31T00:32:02;13.95;;;2.75;;
79171;SDS011;68597;53.238;-1.418;2023-03-31T00:34:28;15.27;;;3.13;;
79171;SDS011;68597;53.238;-1.418;2023-03-31T00:36:53;15.20;;;2.92;;
79171;SDS011;68597;53.238;-1.418;2023-03-31T00:39:19;14.63;;;2.78;;
79171;SDS011;68597;53.238;-1.418;2023-03-31T00:41:44;14.38;;;1.98;;
79171;SDS011;68597;53.238;-1.418;2023-03-31T00:44:13;16.48;;;3.08;;
79171;SDS011;68597;53.238;-1.418;2023-03-31T00:46:41;12.57;;;2.40;;
79171;SDS011;68597;53.238;-1.418;2023-03-31T00:49:13;14.75;;;2.63;;
79171;SDS011;68597;53.238;-1.418;2023-03-31T00:51:42;11.77;;;2.97;;
79171;SDS011;68597;53.238;-1.418;2023-03-31T00:54:08;9.25;;;2.13;;
79171;SDS011;68597;53.238;-1.418;2023-03-31T00:56:35;11.27;;;2.72;;
79171;SDS011;68597;53.238;-1.418;2023-03-31T00:59:04;12.90;;;2.42;;
79171;SDS011;68597;53.238;-1.418;2023-03-31T01:01:34;8.60;;;1.85;;
79171;SDS011;68597;53.238;-1.418;2023-03-31T01:04:01;12.95;;;2.38;;
79171;SDS011;68597;53.238;-1.418;2023-03-31T01:06:27;15.93;;;2.67;;
79171;SDS011;68597;53.238;-1.418;2023-03-31T01:08:53;10.95;;;2.67;;
79171;SDS011;68597;53.238;-1.418;2023-03-31T01:11:21;11.82;;;2.20;;
79171;SDS011;68597;53.238;-1.418;2023-03-31T01:13:49;11.02;;;2.20;;
79171;SDS011;68597;53.238;-1.418;2023-03-31T01:16:17;9.95;;;2.05;;
79171;SDS011;68597;53.238;-1.418;2023-03-31T01:18:44;11.88;;;2.15;;
79171;SDS011;68597;53.238;-1.418;2023-03-31T01:27:31;11.70;;;2.85;;
79171;SDS011;68597;53.238;-1.418;2023-03-31T01:33:28;11.30;;;2.70;;
79171;SDS011;68597;53.238;-1.418;2023-03-31T01:36:42;11.75;;;3.95;;
79171;SDS011;68597;53.238;-1.418;2023-03-31T01:42:30;15.75;;;2.97;;
79171;SDS011;68597;53.238;-1.418;2023-03-31T01:45:01;9.68;;;2.30;;
79171;SDS011;68597;53.238;-1.418;2023-03-31T01:47:36;9.77;;;2.25;;
79171;SDS011;68597;53.238;-1.418;2023-03-31T01:50:05;8.60;;;2.08;;
79171;SDS011;68597;53.238;-1.418;2023-03-31T01:52:36;9.20;;;2.33;;
79171;SDS011;68597;53.238;-1.418;2023-03-31T01:55:11;15.95;;;3.08;;
79171;SDS011;68597;53.238;-1.418;2023-03-31T01:57:44;10.27;;;2.33;;
79171;SDS011;68597;53.238;-1.418;2023-03-31T02:00:13;14.75;;;2.33;;
79171;SDS011;68597;53.238;-1.418;2023-03-31T02:02:41;8.38;;;1.95;;
79171;SDS011;68597;53.238;-1.418;2023-03-31T02:07:40;8.70;;;2.25;;
79171;SDS011;68597;53.238;-1.418;2023-03-31T02:10:11;10.48;;;2.08;;
79171;SDS011;68597;53.238;-1.418;2023-03-31T02:12:39;11.77;;;2.47;;
79171;SDS011;68597;53.238;-1.418;2023-03-31T02:15:08;9.82;;;2.30;;
79171;SDS011;68597;53.238;-1.418;2023-03-31T02:17:36;13.63;;;3.33;;
79171;SDS011;68597;53.238;-1.418;2023-03-31T02:20:06;13.18;;;3.35;;
79171;SDS011;68597;53.238;-1.418;2023-03-31T02:22:36;10.00;;;2.33;;
79171;SDS011;68597;53.238;-1.418;2023-03-31T02:25:07;13.82;;;2.95;;
79171;SDS011;68597;53.238;-1.418;2023-03-31T02:27:39;10.90;;;2.70;;
79171;SDS011;68597;53.238;-1.418;2023-03-31T02:30:06;14.30;;;2.28;;
79171;SDS011;68597;53.238;-1.418;2023-03-31T02:32:34;13.20;;;2.22;;
79171;SDS011;68597;53.238;-1.418;2023-03-31T02:35:02;12.88;;;2.85;;
79171;SDS011;68597;53.238;-1.418;2023-03-31T02:37:29;8.52;;;2.72;;
79171;SDS011;68597;53.238;-1.418;2023-03-31T02:39:55;14.52;;;3.53;;
79171;SDS011;68597;53.238;-1.418;2023-03-31T02:42:24;11.25;;;2.72;;
79171;SDS011;68597;53.238;-1.418;2023-03-31T02:44:50;9.82;;;2.25;;
79171;SDS011;68597;53.238;-1.418;2023-03-31T02:47:16;9.75;;;3.80;;
79171;SDS011;68597;53.238;-1.418;2023-03-31T02:49:44;14.45;;;2.83;;
79171;SDS011;68597;53.238;-1.418;2023-03-31T02:52:26;12.35;;;2.90;;
79171;SDS011;68597;53.238;-1.418;2023-03-31T02:55:17;10.82;;;2.63;;
79171;SDS011;68597;53.238;-1.418;2023-03-31T03:03:50;9.05;;;2.53;;
79171;SDS011;68597;53.238;-1.418;2023-03-31T03:06:30;9.80;;;2.38;;
79171;SDS011;68597;53.238;-1.418;2023-03-31T03:09:15;10.23;;;2.28;;
79171;SDS011;68597;53.238;-1.418;2023-03-31T03:11:51;9.00;;;2.30;;
79171;SDS011;68597;53.238;-1.418;2023-03-31T03:14:27;9.05;;;2.00;;
79171;SDS011;68597;53.238;-1.418;2023-03-31T03:16:58;9.35;;;2.42;;
79171;SDS011;68597;53.238;-1.418;2023-03-31T03:19:27;8.07;;;2.20;;
79171;SDS011;68597;53.238;-1.418;2023-03-31T03:21:53;6.35;;;1.88;;
79171;SDS011;68597;53.238;-1.418;2023-03-31T03:24:18;6.68;;;2.30;;
79171;SDS011;68597;53.238;-1.418;2023-03-31T03:26:44;6.95;;;2.17;;
79171;SDS011;68597;53.238;-1.418;2023-03-31T03:29:10;7.15;;;2.25;;
79171;SDS011;68597;53.238;-1.418;2023-03-31T03:31:36;8.60;;;2.63;;
79171;SDS011;68597;53.238;-1.418;2023-03-31T03:34:02;9.40;;;2.70;;
79171;SDS011;68597;53.238;-1.418;2023-03-31T03:36:28;8.02;;;2.00;;
79171;SDS011;68597;53.238;-1.418;2023-03-31T03:38:53;6.75;;;2.30;;
79171;SDS011;68597;53.238;-1.418;2023-03-31T03:41:19;7.35;;;2.85;;
79171;SDS011;68597;53.238;-1.418;2023-03-31T03:43:44;9.80;;;4.45;;
79171;SDS011;68597;53.238;-1.418;2023-03-31T03:46:10;8.90;;;3.83;;
79171;SDS011;68597;53.238;-1.418;2023-03-31T03:48:35;12.95;;;4.20;;
79171;SDS011;68597;53.238;-1.418;2023-03-31T03:51:02;11.63;;;4.47;;
79171;SDS011;68597;53.238;-1.418;2023-03-31T03:53:28;14.65;;;5.53;;
79171;SDS011;68597;53.238;-1.418;2023-03-31T03:55:53;17.40;;;5.05;;
79171;SDS011;68597;53.238;-1.418;2023-03-31T03:58:19;14.07;;;5.47;;
79171;SDS011;68597;53.238;-1.418;2023-03-31T04:00:44;13.68;;;6.50;;
79171;SDS011;68597;53.238;-1.418;2023-03-31T04:03:10;10.25;;;4.70;;
79171;SDS011;68597;53.238;-1.418;2023-03-31T04:05:36;11.93;;;5.10;;
79171;SDS011;68597;53.238;-1.418;2023-03-31T04:08:03;11.55;;;4.03;;
79171;SDS011;68597;53.238;-1.418;2023-03-31T04:10:29;13.85;;;4.18;;
79171;SDS011;68597;53.238;-1.418;2023-03-31T04:12:54;8.35;;;3.55;;
79171;SDS011;68597;53.238;-1.418;2023-03-31T04:15:20;7.97;;;3.38;;
79171;SDS011;68597;53.238;-1.418;2023-03-31T04:17:46;8.25;;;3.40;;
79171;SDS011;68597;53.238;-1.418;2023-03-31T04:20:11;8.13;;;2.70;;
79171;SDS011;68597;53.238;-1.418;2023-03-31T04:22:37;7.80;;;2.65;;
79171;SDS011;68597;53.238;-1.418;2023-03-31T04:25:05;7.80;;;3.03;;
79171;SDS011;68597;53.238;-1.418;2023-03-31T04:27:31;5.88;;;2.40;;
79171;SDS011;68597;53.238;-1.418;2023-03-31T04:29:57;7.57;;;3.03;;
79171;SDS011;68597;53.238;-1.418;2023-03-31T04:32:22;5.88;;;2.38;;
79171;SDS011;68597;53.238;-1.418;2023-03-31T04:34:48;4.95;;;2.20;;
79171;SDS011;68597;53.238;-1.418;2023-03-31T04:37:14;7.30;;;2.55;;
79171;SDS011;68597;53.238;-1.418;2023-03-31T04:39:39;6.40;;;2.53;;
79171;SDS011;68597;53.238;-1.418;2023-03-31T04:42:06;5.97;;;2.30;;
79171;SDS011;68597;53.238;-1.418;2023-03-31T04:44:32;6.55;;;2.20;;
79171;SDS011;68597;53.238;-1.418;2023-03-31T04:46:57;5.95;;;2.03;;
79171;SDS011;68597;53.238;-1.418;2023-03-31T04:49:23;7.68;;;2.60;;
79171;SDS011;68597;53.238;-1.418;2023-03-31T04:51:49;6.22;;;2.70;;
79171;SDS011;68597;53.238;-1.418;2023-03-31T04:54:14;7.80;;;2.50;;
79171;SDS011;68597;53.238;-1.418;2023-03-31T04:56:40;10.38;;;3.60;;
79171;SDS011;68597;53.238;-1.418;2023-03-31T04:59:07;8.95;;;3.10;;
79171;SDS011;68597;53.238;-1.418;2023-03-31T05:01:32;8.70;;;2.92;;
79171;SDS011;68597;53.238;-1.418;2023-03-31T05:03:58;8.10;;;2.92;;
79171;SDS011;68597;53.238;-1.418;2023-03-31T05:06:24;10.13;;;3.10;;
79171;SDS011;68597;53.238;-1.418;2023-03-31T05:08:49;6.65;;;2.63;;
79171;SDS011;68597;53.238;-1.418;2023-03-31T05:11:15;9.38;;;3.33;;
79171;SDS011;68597;53.238;-1.418;2023-03-31T05:13:40;9.65;;;3.53;;
79171;SDS011;68597;53.238;-1.418;2023-03-31T05:16:08;8.13;;;3.15;;
79171;SDS011;68597;53.238;-1.418;2023-03-31T05:18:35;8.95;;;3.05;;
79171;SDS011;68597;53.238;-1.418;2023-03-31T05:21:07;9.13;;;3.45;;
79171;SDS011;68597;53.238;-1.418;2023-03-31T05:23:34;7.93;;;3.03;;
79171;SDS011;68597;53.238;-1.418;2023-03-31T05:26:00;8.88;;;3.50;;
79171;SDS011;68597;53.238;-1.418;2023-03-31T05:28:25;11.60;;;3.63;;
79171;SDS011;68597;53.238;-1.418;2023-03-31T05:30:51;9.85;;;2.88;;
79171;SDS011;68597;53.238;-1.418;2023-03-31T05:33:17;9.40;;;3.42;;
79171;SDS011;68597;53.238;-1.418;2023-03-31T05:35:43;10.50;;;4.18;;
79171;SDS011;68597;53.238;-1.418;2023-03-31T05:38:09;10.45;;;3.47;;
79171;SDS011;68597;53.238;-1.418;2023-03-31T05:40:34;10.00;;;3.17;;
79171;SDS011;68597;53.238;-1.418;2023-03-31T05:43:00;8.25;;;3.30;;
79171;SDS011;68597;53.238;-1.418;2023-03-31T05:45:25;7.22;;;2.35;;
79171;SDS011;68597;53.238;-1.418;2023-03-31T05:47:51;12.23;;;3.45;;
79171;SDS011;68597;53.238;-1.418;2023-03-31T05:50:17;9.85;;;3.42;;
79171;SDS011;68597;53.238;-1.418;2023-03-31T05:52:43;9.43;;;3.28;;
79171;SDS011;68597;53.238;-1.418;2023-03-31T05:55:09;9.20;;;3.55;;
79171;SDS011;68597;53.238;-1.418;2023-03-31T05:57:34;12.32;;;3.67;;
79171;SDS011;68597;53.238;-1.418;2023-03-31T06:00:00;9.00;;;3.70;;
79171;SDS011;68597;53.238;-1.418;2023-03-31T06:02:25;10.75;;;3.83;;
79171;SDS011;68597;53.238;-1.418;2023-03-31T06:04:51;8.55;;;3.80;;
79171;SDS011;68597;53.238;-1.418;2023-03-31T06:07:18;9.57;;;3.63;;
79171;SDS011;68597;53.238;-1.418;2023-03-31T06:09:44;7.80;;;3.72;;
79171;SDS011;68597;53.238;-1.418;2023-03-31T06:12:09;11.65;;;4.25;;
79171;SDS011;68597;53.238;-1.418;2023-03-31T06:14:35;10.05;;;3.63;;
79171;SDS011;68597;53.238;-1.418;2023-03-31T06:17:00;9.15;;;3.78;;
79171;SDS011;68597;53.238;-1.418;2023-03-31T06:19:26;9.05;;;4.10;;
79171;SDS011;68597;53.238;-1.418;2023-03-31T06:21:51;10.30;;;3.80;;
79171;SDS011;68597;53.238;-1.418;2023-03-31T06:24:18;10.07;;;4.18;;
79171;SDS011;68597;53.238;-1.418;2023-03-31T06:26:44;11.27;;;4.05;;
79171;SDS011;68597;53.238;-1.418;2023-03-31T06:29:09;10.85;;;3.53;;
79171;SDS011;68597;53.238;-1.418;2023-03-31T06:31:35;10.55;;;3.92;;
79171;SDS011;68597;53.238;-1.418;2023-03-31T06:34:00;11.55;;;3.97;;
79171;SDS011;68597;53.238;-1.418;2023-03-31T06:36:26;11.57;;;3.55;;
79171;SDS011;68597;53.238;-1.418;2023-03-31T06:38:52;12.10;;;3.92;;
79171;SDS011;68597;53.238;-1.418;2023-03-31T06:41:19;9.77;;;4.25;;
79171;SDS011;68597;53.238;-1.418;2023-03-31T06:43:45;8.57;;;3.92;;
79171;SDS011;68597;53.238;-1.418;2023-03-31T06:46:11;13.55;;;4.50;;
79171;SDS011;68597;53.238;-1.418;2023-03-31T06:48:36;12.48;;;4.35;;
79171;SDS011;68597;53.238;-1.418;2023-03-31T06:51:02;10.25;;;3.47;;
79171;SDS011;68597;53.238;-1.418;2023-03-31T06:53:29;10.70;;;3.67;;
79171;SDS011;68597;53.238;-1.418;2023-03-31T06:55:55;15.45;;;4.20;;
79171;SDS011;68597;53.238;-1.418;2023-03-31T06:58:22;10.27;;;3.67;;
79171;SDS011;68597;53.238;-1.418;2023-03-31T07:00:49;13.25;;;4.57;;
79171;SDS011;68597;53.238;-1.418;2023-03-31T07:03:14;9.95;;;3.85;;
79171;SDS011;68597;53.238;-1.418;2023-03-31T07:05:40;11.20;;;4.15;;
79171;SDS011;68597;53.238;-1.418;2023-03-31T07:08:06;10.82;;;4.50;;
79171;SDS011;68597;53.238;-1.418;2023-03-31T07:10:31;15.32;;;4.60;;
79171;SDS011;68597;53.238;-1.418;2023-03-31T07:12:57;9.75;;;4.43;;
79171;SDS011;68597;53.238;-1.418;2023-03-31T07:15:24;11.18;;;4.90;;
79171;SDS011;68597;53.238;-1.418;2023-03-31T07:17:50;16.00;;;4.90;;
79171;SDS011;68597;53.238;-1.418;2023-03-31T07:20:16;17.95;;;5.00;;
79171;SDS011;68597;53.238;-1.418;2023-03-31T07:22:43;11.77;;;4.47;;
79171;SDS011;68597;53.238;-1.418;2023-03-31T07:25:10;13.70;;;5.05;;
79171;SDS011;68597;53.238;-1.418;2023-03-31T07:27:38;10.52;;;4.72;;
79171;SDS011;68597;53.238;-1.418;2023-03-31T07:30:04;11.57;;;5.22;;
79171;SDS011;68597;53.238;-1.418;2023-03-31T07:32:32;13.05;;;5.53;;
79171;SDS011;68597;53.238;-1.418;2023-03-31T07:34:57;14.23;;;4.95;;
79171;SDS011;68597;53.238;-1.418;2023-03-31T07:37:23;13.75;;;5.28;;
79171;SDS011;68597;53.238;-1.418;2023-03-31T07:39:49;13.00;;;5.20;;
79171;SDS011;68597;53.238;-1.418;2023-03-31T07:42:14;15.98;;;5.60;;
79171;SDS011;68597;53.238;-1.418;2023-03-31T07:44:40;16.38;;;4.55;;
79171;SDS011;68597;53.238;-1.418;2023-03-31T07:47:05;12.80;;;5.13;;
79171;SDS011;68597;53.238;-1.418;2023-03-31T07:49:33;12.48;;;4.95;;
79171;SDS011;68597;53.238;-1.418;2023-03-31T07:51:59;11.40;;;5.50;;
79171;SDS011;68597;53.238;-1.418;2023-03-31T07:54:25;13.18;;;4.90;;
79171;SDS011;68597;53.238;-1.418;2023-03-31T07:56:51;14.68;;;4.63;;
79171;SDS011;68597;53.238;-1.418;2023-03-31T07:59:17;13.50;;;4.18;;
79171;SDS011;68597;53.238;-1.418;2023-03-31T08:01:43;12.52;;;5.32;;
79171;SDS011;68597;53.238;-1.418;2023-03-31T08:04:09;16.35;;;5.25;;
79171;SDS011;68597;53.238;-1.418;2023-03-31T08:06:37;11.60;;;5.25;;
79171;SDS011;68597;53.238;-1.418;2023-03-31T08:09:03;15.20;;;6.22;;
79171;SDS011;68597;53.238;-1.418;2023-03-31T08:11:30;18.58;;;6.03;;
79171;SDS011;68597;53.238;-1.418;2023-03-31T08:13:55;14.02;;;5.95;;
79171;SDS011;68597;53.238;-1.418;2023-03-31T08:16:21;12.40;;;4.70;;
79171;SDS011;68597;53.238;-1.418;2023-03-31T08:18:47;13.23;;;4.93;;
79171;SDS011;68597;53.238;-1.418;2023-03-31T08:21:12;10.13;;;4.20;;
79171;SDS011;68597;53.238;-1.418;2023-03-31T08:23:39;11.45;;;4.10;;
79171;SDS011;68597;53.238;-1.418;2023-03-31T08:26:09;9.73;;;3.80;;
79171;SDS011;68597;53.238;-1.418;2023-03-31T08:28:35;8.32;;;3.38;;
79171;SDS011;68597;53.238;-1.418;2023-03-31T08:31:02;9.75;;;4.47;;
79171;SDS011;68597;53.238;-1.418;2023-03-31T08:33:28;12.63;;;4.75;;
79171;SDS011;68597;53.238;-1.418;2023-03-31T08:35:53;15.10;;;5.57;;
79171;SDS011;68597;53.238;-1.418;2023-03-31T08:38:19;15.05;;;6.40;;
79171;SDS011;68597;53.238;-1.418;2023-03-31T08:40:46;18.38;;;6.50;;
79171;SDS011;68597;53.238;-1.418;2023-03-31T08:43:13;16.92;;;6.57;;
79171;SDS011;68597;53.238;-1.418;2023-03-31T08:45:43;17.30;;;6.90;;
79171;SDS011;68597;53.238;-1.418;2023-03-31T08:48:13;20.40;;;7.10;;
79171;SDS011;68597;53.238;-1.418;2023-03-31T08:50:46;20.63;;;7.15;;
79171;SDS011;68597;53.238;-1.418;2023-03-31T08:53:17;21.05;;;7.28;;
79171;SDS011;68597;53.238;-1.418;2023-03-31T08:55:49;17.33;;;6.55;;
79171;SDS011;68597;53.238;-1.418;2023-03-31T08:58:19;19.25;;;6.20;;
79171;SDS011;68597;53.238;-1.418;2023-03-31T09:03:22;16.83;;;5.38;;
79171;SDS011;68597;53.238;-1.418;2023-03-31T09:05:55;15.85;;;6.43;;
79171;SDS011;68597;53.238;-1.418;2023-03-31T09:08:30;10.48;;;5.05;;
79171;SDS011;68597;53.238;-1.418;2023-03-31T09:11:03;14.98;;;4.28;;
79171;SDS011;68597;53.238;-1.418;2023-03-31T09:16:32;9.57;;;3.35;;
79171;SDS011;68597;53.238;-1.418;2023-03-31T09:19:02;8.60;;;3.55;;
79171;SDS011;68597;53.238;-1.418;2023-03-31T09:21:28;7.53;;;2.90;;
79171;SDS011;68597;53.238;-1.418;2023-03-31T09:23:57;9.55;;;3.53;;
79171;SDS011;68597;53.238;-1.418;2023-03-31T09:26:31;7.95;;;3.45;;
79171;SDS011;68597;53.238;-1.418;2023-03-31T09:29:01;12.77;;;3.50;;
79171;SDS011;68597;53.238;-1.418;2023-03-31T09:31:30;10.75;;;3.50;;
79171;SDS011;68597;53.238;-1.418;2023-03-31T09:33:57;9.55;;;3.33;;
79171;SDS011;68597;53.238;-1.418;2023-03-31T09:36:25;9.50;;;3.22;;
79171;SDS011;68597;53.238;-1.418;2023-03-31T09:38:51;7.85;;;2.63;;
79171;SDS011;68597;53.238;-1.418;2023-03-31T09:41:16;7.65;;;2.72;;
79171;SDS011;68597;53.238;-1.418;2023-03-31T09:43:44;7.07;;;2.63;;
79171;SDS011;68597;53.238;-1.418;2023-03-31T09:46:14;9.57;;;2.80;;
79171;SDS011;68597;53.238;-1.418;2023-03-31T09:48:41;6.78;;;2.65;;
79171;SDS011;68597;53.238;-1.418;2023-03-31T09:51:17;8.32;;;2.78;;
79171;SDS011;68597;53.238;-1.418;2023-03-31T09:56:13;8.10;;;2.72;;
79171;SDS011;68597;53.238;-1.418;2023-03-31T09:59:00;7.03;;;2.70;;
79171;SDS011;68597;53.238;-1.418;2023-03-31T10:01:26;6.10;;;2.28;;
79171;SDS011;68597;53.238;-1.418;2023-03-31T10:03:53;5.70;;;2.85;;
79171;SDS011;68597;53.238;-1.418;2023-03-31T10:06:20;8.30;;;3.00;;
79171;SDS011;68597;53.238;-1.418;2023-03-31T10:08:47;8.10;;;3.25;;
79171;SDS011;68597;53.238;-1.418;2023-03-31T10:11:18;7.18;;;2.70;;
79171;SDS011;68597;53.238;-1.418;2023-03-31T10:13:45;7.50;;;2.00;;
79171;SDS011;68597;53.238;-1.418;2023-03-31T10:16:14;7.03;;;2.63;;
79171;SDS011;68597;53.238;-1.418;2023-03-31T10:18:46;6.97;;;3.22;;
79171;SDS011;68597;53.238;-1.418;2023-03-31T10:21:17;9.43;;;3.90;;
79171;SDS011;68597;53.238;-1.418;2023-03-31T10:23:46;10.23;;;3.22;;
79171;SDS011;68597;53.238;-1.418;2023-03-31T10:26:12;9.85;;;3.30;;
79171;SDS011;68597;53.238;-1.418;2023-03-31T10:28:42;10.18;;;3.28;;
79171;SDS011;68597;53.238;-1.418;2023-03-31T10:31:07;9.02;;;2.70;;
79171;SDS011;68597;53.238;-1.418;2023-03-31T10:33:35;8.98;;;3.30;;
79171;SDS011;68597;53.238;-1.418;2023-03-31T10:36:06;6.50;;;2.75;;
79171;SDS011;68597;53.238;-1.418;2023-03-31T10:38:33;8.93;;;2.95;;
79171;SDS011;68597;53.238;-1.418;2023-03-31T10:41:01;9.45;;;3.45;;
79171;SDS011;68597;53.238;-1.418;2023-03-31T10:43:27;10.30;;;3.65;;
79171;SDS011;68597;53.238;-1.418;2023-03-31T10:45:54;12.35;;;3.63;;
79171;SDS011;68597;53.238;-1.418;2023-03-31T10:48:23;8.50;;;3.20;;
79171;SDS011;68597;53.238;-1.418;2023-03-31T10:50:51;10.57;;;3.15;;
79171;SDS011;68597;53.238;-1.418;2023-03-31T10:53:17;9.82;;;2.83;;
79171;SDS011;68597;53.238;-1.418;2023-03-31T10:55:45;7.55;;;2.75;;
79171;SDS011;68597;53.238;-1.418;2023-03-31T10:58:22;9.32;;;2.95;;
79171;SDS011;68597;53.238;-1.418;2023-03-31T11:01:00;10.95;;;4.28;;
79171;SDS011;68597;53.238;-1.418;2023-03-31T11:03:49;14.65;;;7.53;;
79171;SDS011;68597;53.238;-1.418;2023-03-31T11:06:25;15.45;;;7.25;;
79171;SDS011;68597;53.238;-1.418;2023-03-31T11:08:57;12.95;;;6.32;;
79171;SDS011;68597;53.238;-1.418;2023-03-31T11:14:04;10.85;;;4.13;;
79171;SDS011;68597;53.238;-1.418;2023-03-31T11:16:38;10.70;;;4.28;;
79171;SDS011;68597;53.238;-1.418;2023-03-31T11:19:15;10.52;;;4.53;;
79171;SDS011;68597;53.238;-1.418;2023-03-31T11:21:52;10.23;;;5.10;;
79171;SDS011;68597;53.238;-1.418;2023-03-31T11:24:36;13.23;;;6.65;;
79171;SDS011;68597;53.238;-1.418;2023-03-31T11:27:21;13.90;;;6.20;;
79171;SDS011;68597;53.238;-1.418;2023-03-31T11:29:55;15.07;;;6.93;;
79171;SDS011;68597;53.238;-1.418;2023-03-31T11:32:32;14.23;;;6.50;;
79171;SDS011;68597;53.238;-1.418;2023-03-31T11:35:17;26.27;;;9.50;;
79171;SDS011;68597;53.238;-1.418;2023-03-31T11:38:04;18.35;;;8.55;;
79171;SDS011;68597;53.238;-1.418;2023-03-31T11:40:44;23.20;;;9.88;;
79171;SDS011;68597;53.238;-1.418;2023-03-31T11:43:23;22.42;;;10.23;;
79171;SDS011;68597;53.238;-1.418;2023-03-31T11:45:52;21.65;;;9.90;;
79171;SDS011;68597;53.238;-1.418;2023-03-31T11:48:25;22.15;;;10.73;;
79171;SDS011;68597;53.238;-1.418;2023-03-31T11:50:57;23.42;;;11.15;;
79171;SDS011;68597;53.238;-1.418;2023-03-31T11:53:26;19.90;;;9.27;;
79171;SDS011;68597;53.238;-1.418;2023-03-31T11:55:55;21.30;;;10.50;;
79171;SDS011;68597;53.238;-1.418;2023-03-31T11:58:22;19.17;;;10.18;;
79171;SDS011;68597;53.238;-1.418;2023-03-31T12:00:54;16.52;;;7.35;;
79171;SDS011;68597;53.238;-1.418;2023-03-31T12:03:26;22.20;;;8.80;;
79171;SDS011;68597;53.238;-1.418;2023-03-31T12:05:57;14.30;;;6.88;;
79171;SDS011;68597;53.238;-1.418;2023-03-31T12:08:30;15.77;;;6.25;;
79171;SDS011;68597;53.238;-1.418;2023-03-31T12:10:59;11.98;;;5.60;;
79171;SDS011;68597;53.238;-1.418;2023-03-31T12:13:33;9.52;;;5.35;;
79171;SDS011;68597;53.238;-1.418;2023-03-31T12:16:05;9.40;;;4.70;;
79171;SDS011;68597;53.238;-1.418;2023-03-31T12:18:37;8.73;;;4.13;;
79171;SDS011;68597;53.238;-1.418;2023-03-31T12:21:06;11.48;;;4.43;;
79171;SDS011;68597;53.238;-1.418;2023-03-31T12:23:37;8.55;;;4.47;;
79171;SDS011;68597;53.238;-1.418;2023-03-31T12:26:09;7.18;;;3.30;;
79171;SDS011;68597;53.238;-1.418;2023-03-31T12:28:44;7.97;;;3.60;;
79171;SDS011;68597;53.238;-1.418;2023-03-31T12:31:12;10.27;;;5.13;;
79171;SDS011;68597;53.238;-1.418;2023-03-31T12:33:44;12.88;;;5.82;;
79171;SDS011;68597;53.238;-1.418;2023-03-31T12:36:20;15.43;;;6.97;;
79171;SDS011;68597;53.238;-1.418;2023-03-31T12:38:57;14.55;;;7.00;;
79171;SDS011;68597;53.238;-1.418;2023-03-31T12:41:36;14.07;;;7.18;;
79171;SDS011;68597;53.238;-1.418;2023-03-31T12:44:23;10.02;;;5.20;;
79171;SDS011;68597;53.238;-1.418;2023-03-31T12:47:12;9.57;;;4.78;;
79171;SDS011;68597;53.238;-1.418;2023-03-31T12:49:49;9.23;;;4.28;;
79171;SDS011;68597;53.238;-1.418;2023-03-31T12:52:25;10.50;;;3.67;;
79171;SDS011;68597;53.238;-1.418;2023-03-31T12:57:51;8.18;;;4.25;;
79171;SDS011;68597;53.238;-1.418;2023-03-31T13:00:21;7.38;;;3.97;;
79171;SDS011;68597;53.238;-1.418;2023-03-31T13:02:48;7.88;;;3.10;;
79171;SDS011;68597;53.238;-1.418;2023-03-31T13:05:39;6.07;;;2.90;;
79171;SDS011;68597;53.238;-1.418;2023-03-31T13:08:09;6.00;;;2.70;;
79171;SDS011;68597;53.238;-1.418;2023-03-31T13:10:50;6.55;;;3.38;;
79171;SDS011;68597;53.238;-1.418;2023-03-31T13:13:20;5.72;;;2.50;;
79171;SDS011;68597;53.238;-1.418;2023-03-31T13:15:48;6.43;;;3.00;;
79171;SDS011;68597;53.238;-1.418;2023-03-31T13:18:17;6.10;;;3.00;;
79171;SDS011;68597;53.238;-1.418;2023-03-31T13:20:44;7.07;;;3.30;;
79171;SDS011;68597;53.238;-1.418;2023-03-31T13:23:17;7.38;;;3.50;;
79171;SDS011;68597;53.238;-1.418;2023-03-31T13:25:45;7.68;;;3.05;;
79171;SDS011;68597;53.238;-1.418;2023-03-31T13:28:14;7.80;;;2.70;;
79171;SDS011;68597;53.238;-1.418;2023-03-31T13:30:58;7.43;;;2.97;;
79171;SDS011;68597;53.238;-1.418;2023-03-31T13:33:25;6.50;;;2.70;;
79171;SDS011;68597;53.238;-1.418;2023-03-31T13:35:58;6.65;;;3.10;;
79171;SDS011;68597;53.238;-1.418;2023-03-31T13:38:58;6.22;;;3.08;;
79171;SDS011;68597;53.238;-1.418;2023-03-31T13:41:35;6.28;;;3.38;;
79171;SDS011;68597;53.238;-1.418;2023-03-31T13:47:30;8.13;;;3.38;;
79171;SDS011;68597;53.238;-1.418;2023-03-31T13:50:20;7.63;;;3.03;;
79171;SDS011;68597;53.238;-1.418;2023-03-31T13:53:02;6.82;;;3.03;;
79171;SDS011;68597;53.238;-1.418;2023-03-31T13:58:44;5.85;;;2.60;;
79171;SDS011;68597;53.238;-1.418;2023-03-31T14:01:46;6.03;;;2.83;;
79171;SDS011;68597;53.238;-1.418;2023-03-31T14:04:36;8.80;;;3.33;;
79171;SDS011;68597;53.238;-1.418;2023-03-31T14:07:15;6.65;;;3.30;;
79171;SDS011;68597;53.238;-1.418;2023-03-31T14:09:44;10.60;;;4.22;;
79171;SDS011;68597;53.238;-1.418;2023-03-31T14:12:20;9.73;;;3.58;;
79171;SDS011;68597;53.238;-1.418;2023-03-31T14:17:19;9.88;;;4.70;;
79171;SDS011;68597;53.238;-1.418;2023-03-31T14:19:54;13.75;;;6.50;;
79171;SDS011;68597;53.238;-1.418;2023-03-31T14:22:36;12.95;;;6.40;;
79171;SDS011;68597;53.238;-1.418;2023-03-31T14:25:12;11.50;;;6.50;;
79171;SDS011;68597;53.238;-1.418;2023-03-31T14:27:47;11.68;;;5.43;;
79171;SDS011;68597;53.238;-1.418;2023-03-31T14:30:22;12.65;;;5.97;;
79171;SDS011;68597;53.238;-1.418;2023-03-31T14:32:57;14.10;;;6.32;;
79171;SDS011;68597;53.238;-1.418;2023-03-31T14:35:34;15.02;;;6.68;;
79171;SDS011;68597;53.238;-1.418;2023-03-31T14:38:04;14.30;;;6.50;;
79171;SDS011;68597;53.238;-1.418;2023-03-31T14:40:34;14.85;;;6.55;;
79171;SDS011;68597;53.238;-1.418;2023-03-31T14:43:09;18.02;;;7.80;;
79171;SDS011;68597;53.238;-1.418;2023-03-31T14:45:42;16.83;;;7.43;;
79171;SDS011;68597;53.238;-1.418;2023-03-31T14:48:09;16.95;;;7.45;;
79171;SDS011;68597;53.238;-1.418;2023-03-31T14:50:40;16.92;;;8.85;;
79171;SDS011;68597;53.238;-1.418;2023-03-31T14:53:12;16.90;;;9.25;;
79171;SDS011;68597;53.238;-1.418;2023-03-31T14:55:38;16.67;;;8.93;;
79171;SDS011;68597;53.238;-1.418;2023-03-31T14:58:04;16.85;;;8.27;;
79171;SDS011;68597;53.238;-1.418;2023-03-31T15:00:31;19.13;;;8.95;;
79171;SDS011;68597;53.238;-1.418;2023-03-31T15:02:58;17.42;;;8.93;;
79171;SDS011;68597;53.238;-1.418;2023-03-31T15:05:26;20.50;;;9.50;;
79171;SDS011;68597;53.238;-1.418;2023-03-31T15:07:59;18.60;;;8.55;;
79171;SDS011;68597;53.238;-1.418;2023-03-31T15:10:28;16.58;;;8.75;;
79171;SDS011;68597;53.238;-1.418;2023-03-31T15:12:57;16.25;;;8.65;;
79171;SDS011;68597;53.238;-1.418;2023-03-31T15:15:23;14.02;;;8.13;;
79171;SDS011;68597;53.238;-1.418;2023-03-31T15:17:50;12.70;;;6.60;;
79171;SDS011;68597;53.238;-1.418;2023-03-31T15:20:20;11.40;;;6.47;;
79171;SDS011;68597;53.238;-1.418;2023-03-31T15:22:49;11.98;;;6.10;;